<?xml version="1.0" encoding="UTF-8"?>
<gpx xmlns="http://www.topografix.com/GPX/1/1" xmlns:xsi="http://www.w3.org/2001/XMLSchema-instance" version="1.1" xsi:schemaLocation="http://www.topografix.com/GPX/1/1 http://www.topografix.com/GPX/1/1/gpx.xsd">
  <metadata>
    <name>Moranbah Australia Day Triathlon</name>
  </metadata>
  <trk>
    <name>Moranbah Australia Day Triathlon</name>
    <trkseg>
      <trkpt lat="-21.998824" lon="148.048765">
        <ele>261.612548</ele>
        <time>2024-01-26T06:42:00.000Z</time>
      </trkpt>
      <trkpt lat="-21.998767" lon="148.047715">
        <ele>261.617543</ele>
        <time>2024-01-26T06:42:11.000Z</time>
      </trkpt>
      <trkpt lat="-21.998806" lon="148.046525">
        <ele>261.679151</ele>
        <time>2024-01-26T06:42:23.000Z</time>
      </trkpt>
      <trkpt lat="-21.998818" lon="148.046439">
        <ele>261.684158</ele>
        <time>2024-01-26T06:42:24.000Z</time>
      </trkpt>
      <trkpt lat="-21.99889" lon="148.045491">
        <ele>261.279504</ele>
        <time>2024-01-26T06:42:34.000Z</time>
      </trkpt>
      <trkpt lat="-21.998917" lon="148.045315">
        <ele>261.077811</ele>
        <time>2024-01-26T06:42:36.000Z</time>
      </trkpt>
      <trkpt lat="-21.99911" lon="148.043993">
        <ele>259.560179</ele>
        <time>2024-01-26T06:42:50.000Z</time>
      </trkpt>
      <trkpt lat="-21.99921" lon="148.043088">
        <ele>258.612974</ele>
        <time>2024-01-26T06:42:59.000Z</time>
      </trkpt>
      <trkpt lat="-21.999225" lon="148.042717">
        <ele>258.214883</ele>
        <time>2024-01-26T06:43:03.000Z</time>
      </trkpt>
      <trkpt lat="-21.999231" lon="148.042276">
        <ele>257.75649</ele>
        <time>2024-01-26T06:43:08.000Z</time>
      </trkpt>
      <trkpt lat="-21.999213" lon="148.041928">
        <ele>257.486108</ele>
        <time>2024-01-26T06:43:12.000Z</time>
      </trkpt>
      <trkpt lat="-21.999127" lon="148.041011">
        <ele>257.375978</ele>
        <time>2024-01-26T06:43:22.000Z</time>
      </trkpt>
      <trkpt lat="-21.999001" lon="148.040314">
        <ele>257.291562</ele>
        <time>2024-01-26T06:43:29.000Z</time>
      </trkpt>
      <trkpt lat="-21.99878" lon="148.039494">
        <ele>257.76639</ele>
        <time>2024-01-26T06:43:38.000Z</time>
      </trkpt>
      <trkpt lat="-21.998586" lon="148.03893">
        <ele>258.251161</ele>
        <time>2024-01-26T06:43:44.000Z</time>
      </trkpt>
      <trkpt lat="-21.998377" lon="148.03846">
        <ele>258.657902</ele>
        <time>2024-01-26T06:43:49.000Z</time>
      </trkpt>
      <trkpt lat="-21.997911" lon="148.037527">
        <ele>258.98033</ele>
        <time>2024-01-26T06:44:00.000Z</time>
      </trkpt>
      <trkpt lat="-21.997021" lon="148.036277">
        <ele>258.434319</ele>
        <time>2024-01-26T06:44:16.000Z</time>
      </trkpt>
      <trkpt lat="-21.997527" lon="148.035547">
        <ele>257.110835</ele>
        <time>2024-01-26T06:44:25.000Z</time>
      </trkpt>
      <trkpt lat="-21.997991" lon="148.034942">
        <ele>255.967345</ele>
        <time>2024-01-26T06:44:33.000Z</time>
      </trkpt>
      <trkpt lat="-21.998078" lon="148.034897">
        <ele>255.803856</ele>
        <time>2024-01-26T06:44:34.000Z</time>
      </trkpt>
      <trkpt lat="-21.998153" lon="148.034891">
        <ele>255.685169</ele>
        <time>2024-01-26T06:44:35.000Z</time>
      </trkpt>
      <trkpt lat="-21.998811" lon="148.035564">
        <ele>254.267954</ele>
        <time>2024-01-26T06:44:45.000Z</time>
      </trkpt>
      <trkpt lat="-21.999401" lon="148.036178">
        <ele>253.266735</ele>
        <time>2024-01-26T06:44:54.000Z</time>
      </trkpt>
      <trkpt lat="-21.999865" lon="148.03662">
        <ele>252.813307</ele>
        <time>2024-01-26T06:45:01.000Z</time>
      </trkpt>
      <trkpt lat="-22.000301" lon="148.036953">
        <ele>252.410371</ele>
        <time>2024-01-26T06:45:07.000Z</time>
      </trkpt>
      <trkpt lat="-22.000849" lon="148.037296">
        <ele>251.500563</ele>
        <time>2024-01-26T06:45:14.000Z</time>
      </trkpt>
      <trkpt lat="-22.001028" lon="148.03738">
        <ele>251.122727</ele>
        <time>2024-01-26T06:45:16.000Z</time>
      </trkpt>
      <trkpt lat="-22.001805" lon="148.037758">
        <ele>249.418099</ele>
        <time>2024-01-26T06:45:25.000Z</time>
      </trkpt>
      <trkpt lat="-22.001863" lon="148.037778">
        <ele>249.31321</ele>
        <time>2024-01-26T06:45:26.000Z</time>
      </trkpt>
      <trkpt lat="-22.001865" lon="148.037766">
        <ele>249.311217</ele>
        <time>2024-01-26T06:45:26.000Z</time>
      </trkpt>
      <trkpt lat="-22.002685" lon="148.038163">
        <ele>247.057966</ele>
        <time>2024-01-26T06:45:36.000Z</time>
      </trkpt>
      <trkpt lat="-22.002868" lon="148.038264">
        <ele>246.517711</ele>
        <time>2024-01-26T06:45:38.000Z</time>
      </trkpt>
      <trkpt lat="-22.003566" lon="148.0386">
        <ele>244.375852</ele>
        <time>2024-01-26T06:45:47.000Z</time>
      </trkpt>
      <trkpt lat="-22.004472" lon="148.039054">
        <ele>242.312001</ele>
        <time>2024-01-26T06:45:58.000Z</time>
      </trkpt>
      <trkpt lat="-22.005042" lon="148.039311">
        <ele>241.248746</ele>
        <time>2024-01-26T06:46:05.000Z</time>
      </trkpt>
      <trkpt lat="-22.005126" lon="148.039358">
        <ele>241.074395</ele>
        <time>2024-01-26T06:46:06.000Z</time>
      </trkpt>
      <trkpt lat="-22.005619" lon="148.039597">
        <ele>240.612005</ele>
        <time>2024-01-26T06:46:12.000Z</time>
      </trkpt>
      <trkpt lat="-22.005686" lon="148.039683">
        <ele>240.745099</ele>
        <time>2024-01-26T06:46:13.000Z</time>
      </trkpt>
      <trkpt lat="-22.005851" lon="148.039771">
        <ele>240.98212</ele>
        <time>2024-01-26T06:46:15.000Z</time>
      </trkpt>
      <trkpt lat="-22.005895" lon="148.03984">
        <ele>241.070104</ele>
        <time>2024-01-26T06:46:16.000Z</time>
      </trkpt>
      <trkpt lat="-22.005916" lon="148.039904">
        <ele>241.156432</ele>
        <time>2024-01-26T06:46:17.000Z</time>
      </trkpt>
      <trkpt lat="-22.005852" lon="148.040071">
        <ele>241.366568</ele>
        <time>2024-01-26T06:46:19.000Z</time>
      </trkpt>
      <trkpt lat="-22.005383" lon="148.040565">
        <ele>242.196283</ele>
        <time>2024-01-26T06:46:26.000Z</time>
      </trkpt>
      <trkpt lat="-22.004568" lon="148.041481">
        <ele>244.502449</ele>
        <time>2024-01-26T06:46:39.000Z</time>
      </trkpt>
      <trkpt lat="-22.004128" lon="148.042102">
        <ele>246.195836</ele>
        <time>2024-01-26T06:46:47.000Z</time>
      </trkpt>
      <trkpt lat="-22.003527" lon="148.042997">
        <ele>248.269578</ele>
        <time>2024-01-26T06:46:58.000Z</time>
      </trkpt>
      <trkpt lat="-22.003194" lon="148.043678">
        <ele>249.60078</ele>
        <time>2024-01-26T06:47:06.000Z</time>
      </trkpt>
      <trkpt lat="-22.003017" lon="148.044019">
        <ele>250.266937</ele>
        <time>2024-01-26T06:47:10.000Z</time>
      </trkpt>
      <trkpt lat="-22.002457" lon="148.045205">
        <ele>251.764248</ele>
        <time>2024-01-26T06:47:24.000Z</time>
      </trkpt>
      <trkpt lat="-22.002133" lon="148.046144">
        <ele>252.932295</ele>
        <time>2024-01-26T06:47:34.000Z</time>
      </trkpt>
      <trkpt lat="-22.002053" lon="148.04632">
        <ele>253.177127</ele>
        <time>2024-01-26T06:47:36.000Z</time>
      </trkpt>
      <trkpt lat="-22.00163" lon="148.048074">
        <ele>255.09703</ele>
        <time>2024-01-26T06:47:55.000Z</time>
      </trkpt>
      <trkpt lat="-22.001533" lon="148.048519">
        <ele>255.330321</ele>
        <time>2024-01-26T06:48:00.000Z</time>
      </trkpt>
      <trkpt lat="-22.001366" lon="148.049913">
        <ele>255.524524</ele>
        <time>2024-01-26T06:48:14.000Z</time>
      </trkpt>
      <trkpt lat="-22.001357" lon="148.050081">
        <ele>255.392639</ele>
        <time>2024-01-26T06:48:16.000Z</time>
      </trkpt>
      <trkpt lat="-22.001315" lon="148.051386">
        <ele>254.375477</ele>
        <time>2024-01-26T06:48:29.000Z</time>
      </trkpt>
      <trkpt lat="-22.001332" lon="148.051808">
        <ele>254.03338</ele>
        <time>2024-01-26T06:48:33.000Z</time>
      </trkpt>
      <trkpt lat="-22.001452" lon="148.053161">
        <ele>252.976552</ele>
        <time>2024-01-26T06:48:47.000Z</time>
      </trkpt>
      <trkpt lat="-22.001471" lon="148.053797">
        <ele>252.578078</ele>
        <time>2024-01-26T06:48:54.000Z</time>
      </trkpt>
      <trkpt lat="-22.001467" lon="148.054608">
        <ele>252.141574</ele>
        <time>2024-01-26T06:49:02.000Z</time>
      </trkpt>
      <trkpt lat="-22.001366" lon="148.056076">
        <ele>251.350992</ele>
        <time>2024-01-26T06:49:17.000Z</time>
      </trkpt>
      <trkpt lat="-22.001196" lon="148.057115">
        <ele>250.78418</ele>
        <time>2024-01-26T06:49:28.000Z</time>
      </trkpt>
      <trkpt lat="-22.001011" lon="148.057923">
        <ele>250.860205</ele>
        <time>2024-01-26T06:49:37.000Z</time>
      </trkpt>
      <trkpt lat="-22.000645" lon="148.059217">
        <ele>251.138648</ele>
        <time>2024-01-26T06:49:51.000Z</time>
      </trkpt>
      <trkpt lat="-22.000293" lon="148.060152">
        <ele>251.282913</ele>
        <time>2024-01-26T06:50:01.000Z</time>
      </trkpt>
      <trkpt lat="-22.000046" lon="148.060719">
        <ele>251.371106</ele>
        <time>2024-01-26T06:50:07.000Z</time>
      </trkpt>
      <trkpt lat="-22.000045" lon="148.060733">
        <ele>251.372839</ele>
        <time>2024-01-26T06:50:07.000Z</time>
      </trkpt>
      <trkpt lat="-22.000047" lon="148.060726">
        <ele>251.374125</ele>
        <time>2024-01-26T06:50:07.000Z</time>
      </trkpt>
      <trkpt lat="-22.000027" lon="148.060778">
        <ele>251.381672</ele>
        <time>2024-01-26T06:50:08.000Z</time>
      </trkpt>
      <trkpt lat="-22.000147" lon="148.060961">
        <ele>251.366845</ele>
        <time>2024-01-26T06:50:10.000Z</time>
      </trkpt>
      <trkpt lat="-22.000217" lon="148.060842">
        <ele>251.323928</ele>
        <time>2024-01-26T06:50:11.000Z</time>
      </trkpt>
      <trkpt lat="-22.000822" lon="148.05929">
        <ele>250.797335</ele>
        <time>2024-01-26T06:50:28.000Z</time>
      </trkpt>
      <trkpt lat="-22.001201" lon="148.057965">
        <ele>250.509074</ele>
        <time>2024-01-26T06:50:42.000Z</time>
      </trkpt>
      <trkpt lat="-22.001436" lon="148.056852">
        <ele>250.64194</ele>
        <time>2024-01-26T06:50:54.000Z</time>
      </trkpt>
      <trkpt lat="-22.001562" lon="148.056119">
        <ele>250.983002</ele>
        <time>2024-01-26T06:51:02.000Z</time>
      </trkpt>
      <trkpt lat="-22.001668" lon="148.054629">
        <ele>251.731203</ele>
        <time>2024-01-26T06:51:17.000Z</time>
      </trkpt>
      <trkpt lat="-22.001639" lon="148.053781">
        <ele>252.182897</ele>
        <time>2024-01-26T06:51:26.000Z</time>
      </trkpt>
      <trkpt lat="-22.001625" lon="148.05315">
        <ele>252.668869</ele>
        <time>2024-01-26T06:51:33.000Z</time>
      </trkpt>
      <trkpt lat="-22.001519" lon="148.05181">
        <ele>253.858665</ele>
        <time>2024-01-26T06:51:47.000Z</time>
      </trkpt>
      <trkpt lat="-22.001519" lon="148.050491">
        <ele>256.369192</ele>
        <time>2024-01-26T06:52:01.000Z</time>
      </trkpt>
      <trkpt lat="-22.001549" lon="148.050002">
        <ele>257.372281</ele>
        <time>2024-01-26T06:52:06.000Z</time>
      </trkpt>
      <trkpt lat="-22.001374" lon="148.049925">
        <ele>257.810228</ele>
        <time>2024-01-26T06:52:08.000Z</time>
      </trkpt>
      <trkpt lat="-22.001243" lon="148.04989">
        <ele>258.089613</ele>
        <time>2024-01-26T06:52:10.000Z</time>
      </trkpt>
      <trkpt lat="-22.000432" lon="148.049888">
        <ele>259.523959</ele>
        <time>2024-01-26T06:52:19.000Z</time>
      </trkpt>
      <trkpt lat="-21.999865" lon="148.049844">
        <ele>260.544179</ele>
        <time>2024-01-26T06:52:25.000Z</time>
      </trkpt>
      <trkpt lat="-21.999076" lon="148.049714">
        <ele>261.343302</ele>
        <time>2024-01-26T06:52:34.000Z</time>
      </trkpt>
      <trkpt lat="-21.998921" lon="148.049573">
        <ele>261.383797</ele>
        <time>2024-01-26T06:52:36.000Z</time>
      </trkpt>
      <trkpt lat="-21.998863" lon="148.049465">
        <ele>261.406229</ele>
        <time>2024-01-26T06:52:37.000Z</time>
      </trkpt>
      <trkpt lat="-21.99885" lon="148.049278">
        <ele>261.43893</ele>
        <time>2024-01-26T06:52:39.000Z</time>
      </trkpt>
      <trkpt lat="-21.998826" lon="148.048951">
        <ele>261.496259</ele>
        <time>2024-01-26T06:52:42.000Z</time>
      </trkpt>
      <trkpt lat="-21.998842" lon="148.048957">
        <ele>261.496434</ele>
        <time>2024-01-26T06:52:42.000Z</time>
      </trkpt>
      <trkpt lat="-21.998822" lon="148.04886">
        <ele>261.514295</ele>
        <time>2024-01-26T06:52:43.000Z</time>
      </trkpt>
      <trkpt lat="-21.998828" lon="148.048779">
        <ele>261.527925</ele>
        <time>2024-01-26T06:52:44.000Z</time>
      </trkpt>
      <trkpt lat="-21.99876" lon="148.047708">
        <ele>261.690015</ele>
        <time>2024-01-26T06:52:55.000Z</time>
      </trkpt>
      <trkpt lat="-21.998798" lon="148.046535">
        <ele>261.847138</ele>
        <time>2024-01-26T06:53:07.000Z</time>
      </trkpt>
      <trkpt lat="-21.998807" lon="148.046431">
        <ele>261.859916</ele>
        <time>2024-01-26T06:53:08.000Z</time>
      </trkpt>
      <trkpt lat="-21.998902" lon="148.045494">
        <ele>261.110446</ele>
        <time>2024-01-26T06:53:18.000Z</time>
      </trkpt>
      <trkpt lat="-21.998912" lon="148.045305">
        <ele>260.958009</ele>
        <time>2024-01-26T06:53:20.000Z</time>
      </trkpt>
      <trkpt lat="-21.999114" lon="148.043991">
        <ele>259.654681</ele>
        <time>2024-01-26T06:53:34.000Z</time>
      </trkpt>
      <trkpt lat="-21.999214" lon="148.043097">
        <ele>258.566803</ele>
        <time>2024-01-26T06:53:43.000Z</time>
      </trkpt>
      <trkpt lat="-21.999213" lon="148.042712">
        <ele>258.107617</ele>
        <time>2024-01-26T06:53:47.000Z</time>
      </trkpt>
      <trkpt lat="-21.999227" lon="148.04227">
        <ele>257.783521</ele>
        <time>2024-01-26T06:53:52.000Z</time>
      </trkpt>
      <trkpt lat="-21.99921" lon="148.041929">
        <ele>257.653145</ele>
        <time>2024-01-26T06:53:56.000Z</time>
      </trkpt>
      <trkpt lat="-21.999133" lon="148.041013">
        <ele>257.297903</ele>
        <time>2024-01-26T06:54:05.000Z</time>
      </trkpt>
      <trkpt lat="-21.999006" lon="148.040302">
        <ele>257.311551</ele>
        <time>2024-01-26T06:54:12.000Z</time>
      </trkpt>
      <trkpt lat="-21.998778" lon="148.039504">
        <ele>257.83088</ele>
        <time>2024-01-26T06:54:21.000Z</time>
      </trkpt>
      <trkpt lat="-21.99858" lon="148.038929">
        <ele>258.206095</ele>
        <time>2024-01-26T06:54:27.000Z</time>
      </trkpt>
      <trkpt lat="-21.99839" lon="148.038467">
        <ele>258.496942</ele>
        <time>2024-01-26T06:54:32.000Z</time>
      </trkpt>
      <trkpt lat="-21.997908" lon="148.037525">
        <ele>259.073061</ele>
        <time>2024-01-26T06:54:43.000Z</time>
      </trkpt>
      <trkpt lat="-21.997035" lon="148.036274">
        <ele>258.309103</ele>
        <time>2024-01-26T06:54:59.000Z</time>
      </trkpt>
      <trkpt lat="-21.997527" lon="148.035549">
        <ele>257.360848</ele>
        <time>2024-01-26T06:55:08.000Z</time>
      </trkpt>
      <trkpt lat="-21.997988" lon="148.034928">
        <ele>256.025536</ele>
        <time>2024-01-26T06:55:16.000Z</time>
      </trkpt>
      <trkpt lat="-21.998093" lon="148.034891">
        <ele>255.834132</ele>
        <time>2024-01-26T06:55:17.000Z</time>
      </trkpt>
      <trkpt lat="-21.998168" lon="148.034909">
        <ele>255.695183</ele>
        <time>2024-01-26T06:55:18.000Z</time>
      </trkpt>
      <trkpt lat="-21.998828" lon="148.03555">
        <ele>254.036042</ele>
        <time>2024-01-26T06:55:28.000Z</time>
      </trkpt>
      <trkpt lat="-21.999402" lon="148.036179">
        <ele>253.393805</ele>
        <time>2024-01-26T06:55:37.000Z</time>
      </trkpt>
      <trkpt lat="-21.999855" lon="148.036617">
        <ele>252.920001</ele>
        <time>2024-01-26T06:55:44.000Z</time>
      </trkpt>
      <trkpt lat="-22.000295" lon="148.036953">
        <ele>252.367595</ele>
        <time>2024-01-26T06:55:50.000Z</time>
      </trkpt>
      <trkpt lat="-22.000854" lon="148.037303">
        <ele>251.333047</ele>
        <time>2024-01-26T06:55:57.000Z</time>
      </trkpt>
      <trkpt lat="-22.001039" lon="148.037386">
        <ele>251.030406</ele>
        <time>2024-01-26T06:55:59.000Z</time>
      </trkpt>
      <trkpt lat="-22.001816" lon="148.037755">
        <ele>249.608275</ele>
        <time>2024-01-26T06:56:08.000Z</time>
      </trkpt>
      <trkpt lat="-22.001869" lon="148.037777">
        <ele>249.465521</ele>
        <time>2024-01-26T06:56:09.000Z</time>
      </trkpt>
      <trkpt lat="-22.001869" lon="148.037768">
        <ele>249.462806</ele>
        <time>2024-01-26T06:56:09.000Z</time>
      </trkpt>
      <trkpt lat="-22.002698" lon="148.038174">
        <ele>246.997658</ele>
        <time>2024-01-26T06:56:19.000Z</time>
      </trkpt>
      <trkpt lat="-22.002858" lon="148.038247">
        <ele>246.474268</ele>
        <time>2024-01-26T06:56:21.000Z</time>
      </trkpt>
      <trkpt lat="-22.003571" lon="148.038584">
        <ele>244.471524</ele>
        <time>2024-01-26T06:56:30.000Z</time>
      </trkpt>
      <trkpt lat="-22.004478" lon="148.039046">
        <ele>242.169537</ele>
        <time>2024-01-26T06:56:41.000Z</time>
      </trkpt>
      <trkpt lat="-22.00504" lon="148.039318">
        <ele>240.769364</ele>
        <time>2024-01-26T06:56:48.000Z</time>
      </trkpt>
      <trkpt lat="-22.00512" lon="148.039364">
        <ele>240.786557</ele>
        <time>2024-01-26T06:56:49.000Z</time>
      </trkpt>
      <trkpt lat="-22.005612" lon="148.039586">
        <ele>241.07407</ele>
        <time>2024-01-26T06:56:55.000Z</time>
      </trkpt>
      <trkpt lat="-22.005682" lon="148.039673">
        <ele>241.131402</ele>
        <time>2024-01-26T06:56:56.000Z</time>
      </trkpt>
      <trkpt lat="-22.005844" lon="148.039771">
        <ele>241.233488</ele>
        <time>2024-01-26T06:56:58.000Z</time>
      </trkpt>
      <trkpt lat="-22.005887" lon="148.039828">
        <ele>241.271376</ele>
        <time>2024-01-26T06:56:59.000Z</time>
      </trkpt>
      <trkpt lat="-22.005903" lon="148.039908">
        <ele>241.30855</ele>
        <time>2024-01-26T06:57:00.000Z</time>
      </trkpt>
      <trkpt lat="-22.005864" lon="148.040083">
        <ele>241.399049</ele>
        <time>2024-01-26T06:57:02.000Z</time>
      </trkpt>
      <trkpt lat="-22.005378" lon="148.04057">
        <ele>241.901901</ele>
        <time>2024-01-26T06:57:09.000Z</time>
      </trkpt>
      <trkpt lat="-22.004565" lon="148.041476">
        <ele>244.559669</ele>
        <time>2024-01-26T06:57:22.000Z</time>
      </trkpt>
      <trkpt lat="-22.004143" lon="148.042092">
        <ele>246.17396</ele>
        <time>2024-01-26T06:57:30.000Z</time>
      </trkpt>
      <trkpt lat="-22.003521" lon="148.042999">
        <ele>248.301671</ele>
        <time>2024-01-26T06:57:42.000Z</time>
      </trkpt>
      <trkpt lat="-22.003185" lon="148.043681">
        <ele>249.675807</ele>
        <time>2024-01-26T06:57:50.000Z</time>
      </trkpt>
      <trkpt lat="-22.003009" lon="148.044018">
        <ele>250.156294</ele>
        <time>2024-01-26T06:57:54.000Z</time>
      </trkpt>
      <trkpt lat="-22.00246" lon="148.045213">
        <ele>251.773885</ele>
        <time>2024-01-26T06:58:08.000Z</time>
      </trkpt>
      <trkpt lat="-22.002129" lon="148.046139">
        <ele>252.964312</ele>
        <time>2024-01-26T06:58:18.000Z</time>
      </trkpt>
      <trkpt lat="-22.002054" lon="148.046311">
        <ele>253.198989</ele>
        <time>2024-01-26T06:58:20.000Z</time>
      </trkpt>
      <trkpt lat="-22.001635" lon="148.048085">
        <ele>255.061927</ele>
        <time>2024-01-26T06:58:39.000Z</time>
      </trkpt>
      <trkpt lat="-22.001536" lon="148.04853">
        <ele>255.459162</ele>
        <time>2024-01-26T06:58:44.000Z</time>
      </trkpt>
      <trkpt lat="-22.001365" lon="148.049929">
        <ele>255.393432</ele>
        <time>2024-01-26T06:58:59.000Z</time>
      </trkpt>
      <trkpt lat="-22.00136" lon="148.05008">
        <ele>255.300528</ele>
        <time>2024-01-26T06:59:01.000Z</time>
      </trkpt>
      <trkpt lat="-22.00132" lon="148.05137">
        <ele>254.437807</ele>
        <time>2024-01-26T06:59:14.000Z</time>
      </trkpt>
      <trkpt lat="-22.001335" lon="148.051813">
        <ele>254.047888</ele>
        <time>2024-01-26T06:59:19.000Z</time>
      </trkpt>
      <trkpt lat="-22.001457" lon="148.053152">
        <ele>252.945681</ele>
        <time>2024-01-26T06:59:33.000Z</time>
      </trkpt>
      <trkpt lat="-22.001475" lon="148.053787">
        <ele>252.617163</ele>
        <time>2024-01-26T06:59:40.000Z</time>
      </trkpt>
      <trkpt lat="-22.001481" lon="148.054615">
        <ele>252.194279</ele>
        <time>2024-01-26T06:59:49.000Z</time>
      </trkpt>
      <trkpt lat="-22.001358" lon="148.056078">
        <ele>251.29342</ele>
        <time>2024-01-26T07:00:04.000Z</time>
      </trkpt>
      <trkpt lat="-22.001209" lon="148.057121">
        <ele>250.880702</ele>
        <time>2024-01-26T07:00:15.000Z</time>
      </trkpt>
      <trkpt lat="-22.001018" lon="148.057915">
        <ele>250.906745</ele>
        <time>2024-01-26T07:00:23.000Z</time>
      </trkpt>
      <trkpt lat="-22.000642" lon="148.059215">
        <ele>251.089779</ele>
        <time>2024-01-26T07:00:37.000Z</time>
      </trkpt>
      <trkpt lat="-22.000296" lon="148.060155">
        <ele>251.355447</ele>
        <time>2024-01-26T07:00:47.000Z</time>
      </trkpt>
      <trkpt lat="-22.000054" lon="148.060706">
        <ele>251.364787</ele>
        <time>2024-01-26T07:00:53.000Z</time>
      </trkpt>
      <trkpt lat="-22.00005" lon="148.060733">
        <ele>251.361841</ele>
        <time>2024-01-26T07:00:53.000Z</time>
      </trkpt>
      <trkpt lat="-22.000037" lon="148.060736">
        <ele>251.359671</ele>
        <time>2024-01-26T07:00:53.000Z</time>
      </trkpt>
      <trkpt lat="-22.000017" lon="148.060775">
        <ele>251.346962</ele>
        <time>2024-01-26T07:00:53.000Z</time>
      </trkpt>
      <trkpt lat="-22.000149" lon="148.060955">
        <ele>251.293245</ele>
        <time>2024-01-26T07:00:55.000Z</time>
      </trkpt>
      <trkpt lat="-22.000214" lon="148.060835">
        <ele>251.260324</ele>
        <time>2024-01-26T07:00:56.000Z</time>
      </trkpt>
      <trkpt lat="-22.000816" lon="148.059275">
        <ele>250.828715</ele>
        <time>2024-01-26T07:01:13.000Z</time>
      </trkpt>
      <trkpt lat="-22.001207" lon="148.057964">
        <ele>250.422671</ele>
        <time>2024-01-26T07:01:27.000Z</time>
      </trkpt>
      <trkpt lat="-22.001432" lon="148.056866">
        <ele>250.690887</ele>
        <time>2024-01-26T07:01:39.000Z</time>
      </trkpt>
      <trkpt lat="-22.001556" lon="148.056121">
        <ele>250.897294</ele>
        <time>2024-01-26T07:01:47.000Z</time>
      </trkpt>
      <trkpt lat="-22.00166" lon="148.054631">
        <ele>251.7429</ele>
        <time>2024-01-26T07:02:02.000Z</time>
      </trkpt>
      <trkpt lat="-22.00164" lon="148.053797">
        <ele>252.260879</ele>
        <time>2024-01-26T07:02:11.000Z</time>
      </trkpt>
      <trkpt lat="-22.001626" lon="148.05314">
        <ele>252.683013</ele>
        <time>2024-01-26T07:02:18.000Z</time>
      </trkpt>
      <trkpt lat="-22.001527" lon="148.051814">
        <ele>253.932742</ele>
        <time>2024-01-26T07:02:32.000Z</time>
      </trkpt>
      <trkpt lat="-22.001527" lon="148.050487">
        <ele>256.32304</ele>
        <time>2024-01-26T07:02:46.000Z</time>
      </trkpt>
      <trkpt lat="-22.001551" lon="148.050011">
        <ele>257.235735</ele>
        <time>2024-01-26T07:02:51.000Z</time>
      </trkpt>
      <trkpt lat="-22.001373" lon="148.049925">
        <ele>257.660117</ele>
        <time>2024-01-26T07:02:53.000Z</time>
      </trkpt>
      <trkpt lat="-22.001243" lon="148.049894">
        <ele>257.942711</ele>
        <time>2024-01-26T07:02:54.000Z</time>
      </trkpt>
      <trkpt lat="-22.000444" lon="148.049893">
        <ele>259.671613</ele>
        <time>2024-01-26T07:03:03.000Z</time>
      </trkpt>
      <trkpt lat="-21.999877" lon="148.049845">
        <ele>260.79656</ele>
        <time>2024-01-26T07:03:09.000Z</time>
      </trkpt>
      <trkpt lat="-21.999078" lon="148.049714">
        <ele>261.160732</ele>
        <time>2024-01-26T07:03:18.000Z</time>
      </trkpt>
      <trkpt lat="-21.998912" lon="148.049569">
        <ele>261.257787</ele>
        <time>2024-01-26T07:03:20.000Z</time>
      </trkpt>
      <trkpt lat="-21.998866" lon="148.049454">
        <ele>261.311535</ele>
        <time>2024-01-26T07:03:21.000Z</time>
      </trkpt>
      <trkpt lat="-21.998849" lon="148.049279">
        <ele>261.389883</ele>
        <time>2024-01-26T07:03:23.000Z</time>
      </trkpt>
      <trkpt lat="-21.998835" lon="148.048951">
        <ele>261.527274</ele>
        <time>2024-01-26T07:03:26.000Z</time>
      </trkpt>
      <trkpt lat="-21.998837" lon="148.048945">
        <ele>261.527688</ele>
        <time>2024-01-26T07:03:26.000Z</time>
      </trkpt>
      <trkpt lat="-21.998827" lon="148.048845">
        <ele>261.570532</ele>
        <time>2024-01-26T07:03:27.000Z</time>
      </trkpt>
      <trkpt lat="-21.998827" lon="148.048771">
        <ele>261.594043</ele>
        <time>2024-01-26T07:03:28.000Z</time>
      </trkpt>
      <trkpt lat="-21.998772" lon="148.047707">
        <ele>261.745321</ele>
        <time>2024-01-26T07:03:39.000Z</time>
      </trkpt>
      <trkpt lat="-21.998798" lon="148.046525">
        <ele>261.689004</ele>
        <time>2024-01-26T07:03:51.000Z</time>
      </trkpt>
      <trkpt lat="-21.998802" lon="148.046437">
        <ele>261.639524</ele>
        <time>2024-01-26T07:03:52.000Z</time>
      </trkpt>
      <trkpt lat="-21.998888" lon="148.045493">
        <ele>261.152027</ele>
        <time>2024-01-26T07:04:02.000Z</time>
      </trkpt>
      <trkpt lat="-21.998911" lon="148.045318">
        <ele>261.060554</ele>
        <time>2024-01-26T07:04:04.000Z</time>
      </trkpt>
      <trkpt lat="-21.999102" lon="148.043995">
        <ele>259.633573</ele>
        <time>2024-01-26T07:04:18.000Z</time>
      </trkpt>
      <trkpt lat="-21.999217" lon="148.043089">
        <ele>258.467825</ele>
        <time>2024-01-26T07:04:27.000Z</time>
      </trkpt>
      <trkpt lat="-21.999225" lon="148.042709">
        <ele>258.174903</ele>
        <time>2024-01-26T07:04:31.000Z</time>
      </trkpt>
      <trkpt lat="-21.999239" lon="148.042263">
        <ele>257.890643</ele>
        <time>2024-01-26T07:04:36.000Z</time>
      </trkpt>
      <trkpt lat="-21.999208" lon="148.04193">
        <ele>257.671773</ele>
        <time>2024-01-26T07:04:39.000Z</time>
      </trkpt>
      <trkpt lat="-21.999119" lon="148.041013">
        <ele>257.155968</ele>
        <time>2024-01-26T07:04:49.000Z</time>
      </trkpt>
      <trkpt lat="-21.999002" lon="148.040319">
        <ele>257.431656</ele>
        <time>2024-01-26T07:04:56.000Z</time>
      </trkpt>
      <trkpt lat="-21.998779" lon="148.039511">
        <ele>257.75996</ele>
        <time>2024-01-26T07:05:05.000Z</time>
      </trkpt>
      <trkpt lat="-21.998589" lon="148.038935">
        <ele>258.106381</ele>
        <time>2024-01-26T07:05:11.000Z</time>
      </trkpt>
      <trkpt lat="-21.998388" lon="148.038457">
        <ele>258.490003</ele>
        <time>2024-01-26T07:05:16.000Z</time>
      </trkpt>
      <trkpt lat="-21.997905" lon="148.037512">
        <ele>259.291554</ele>
        <time>2024-01-26T07:05:27.000Z</time>
      </trkpt>
      <trkpt lat="-21.997028" lon="148.036262">
        <ele>258.457856</ele>
        <time>2024-01-26T07:05:43.000Z</time>
      </trkpt>
      <trkpt lat="-21.997527" lon="148.035538">
        <ele>257.327908</ele>
        <time>2024-01-26T07:05:52.000Z</time>
      </trkpt>
      <trkpt lat="-21.997995" lon="148.034942">
        <ele>255.90398</ele>
        <time>2024-01-26T07:06:00.000Z</time>
      </trkpt>
      <trkpt lat="-21.998086" lon="148.034897">
        <ele>255.701109</ele>
        <time>2024-01-26T07:06:01.000Z</time>
      </trkpt>
      <trkpt lat="-21.998169" lon="148.034892">
        <ele>255.553851</ele>
        <time>2024-01-26T07:06:02.000Z</time>
      </trkpt>
      <trkpt lat="-21.998819" lon="148.035558">
        <ele>254.242868</ele>
        <time>2024-01-26T07:06:12.000Z</time>
      </trkpt>
      <trkpt lat="-21.999402" lon="148.036179">
        <ele>253.44276</ele>
        <time>2024-01-26T07:06:21.000Z</time>
      </trkpt>
      <trkpt lat="-21.999859" lon="148.036608">
        <ele>252.82693</ele>
        <time>2024-01-26T07:06:28.000Z</time>
      </trkpt>
      <trkpt lat="-22.000298" lon="148.036945">
        <ele>252.177526</ele>
        <time>2024-01-26T07:06:34.000Z</time>
      </trkpt>
      <trkpt lat="-22.000866" lon="148.037301">
        <ele>251.401576</ele>
        <time>2024-01-26T07:06:41.000Z</time>
      </trkpt>
      <trkpt lat="-22.001032" lon="148.037374">
        <ele>251.174582</ele>
        <time>2024-01-26T07:06:43.000Z</time>
      </trkpt>
      <trkpt lat="-22.001803" lon="148.037751">
        <ele>249.456164</ele>
        <time>2024-01-26T07:06:52.000Z</time>
      </trkpt>
      <trkpt lat="-22.001867" lon="148.037782">
        <ele>249.322399</ele>
        <time>2024-01-26T07:06:53.000Z</time>
      </trkpt>
      <trkpt lat="-22.001858" lon="148.037777">
        <ele>249.319855</ele>
        <time>2024-01-26T07:06:53.000Z</time>
      </trkpt>
      <trkpt lat="-22.002691" lon="148.038167">
        <ele>247.009853</ele>
        <time>2024-01-26T07:07:03.000Z</time>
      </trkpt>
      <trkpt lat="-22.00287" lon="148.038249">
        <ele>246.519384</ele>
        <time>2024-01-26T07:07:05.000Z</time>
      </trkpt>
      <trkpt lat="-22.003561" lon="148.038596">
        <ele>244.526948</ele>
        <time>2024-01-26T07:07:13.000Z</time>
      </trkpt>
      <trkpt lat="-22.004465" lon="148.039052">
        <ele>241.890143</ele>
        <time>2024-01-26T07:07:24.000Z</time>
      </trkpt>
      <trkpt lat="-22.005038" lon="148.039313">
        <ele>241.338186</ele>
        <time>2024-01-26T07:07:31.000Z</time>
      </trkpt>
      <trkpt lat="-22.005119" lon="148.039363">
        <ele>241.308746</ele>
        <time>2024-01-26T07:07:32.000Z</time>
      </trkpt>
      <trkpt lat="-22.005608" lon="148.039585">
        <ele>241.152554</ele>
        <time>2024-01-26T07:07:38.000Z</time>
      </trkpt>
      <trkpt lat="-22.005679" lon="148.039683">
        <ele>241.121409</ele>
        <time>2024-01-26T07:07:39.000Z</time>
      </trkpt>
      <trkpt lat="-22.005844" lon="148.039776">
        <ele>241.065944</ele>
        <time>2024-01-26T07:07:41.000Z</time>
      </trkpt>
      <trkpt lat="-22.005886" lon="148.039839">
        <ele>241.045353</ele>
        <time>2024-01-26T07:07:42.000Z</time>
      </trkpt>
      <trkpt lat="-22.005902" lon="148.039909">
        <ele>241.025168</ele>
        <time>2024-01-26T07:07:43.000Z</time>
      </trkpt>
      <trkpt lat="-22.005855" lon="148.040072">
        <ele>240.975994</ele>
        <time>2024-01-26T07:07:45.000Z</time>
      </trkpt>
      <trkpt lat="-22.005381" lon="148.04057">
        <ele>242.09581</ele>
        <time>2024-01-26T07:07:52.000Z</time>
      </trkpt>
      <trkpt lat="-22.004567" lon="148.041483">
        <ele>244.54127</ele>
        <time>2024-01-26T07:08:05.000Z</time>
      </trkpt>
      <trkpt lat="-22.004128" lon="148.042098">
        <ele>246.121037</ele>
        <time>2024-01-26T07:08:13.000Z</time>
      </trkpt>
      <trkpt lat="-22.003522" lon="148.042994">
        <ele>248.397809</ele>
        <time>2024-01-26T07:08:24.000Z</time>
      </trkpt>
      <trkpt lat="-22.003187" lon="148.043686">
        <ele>249.551416</ele>
        <time>2024-01-26T07:08:32.000Z</time>
      </trkpt>
      <trkpt lat="-22.003018" lon="148.044026">
        <ele>250.096866</ele>
        <time>2024-01-26T07:08:36.000Z</time>
      </trkpt>
      <trkpt lat="-22.002458" lon="148.045218">
        <ele>251.827248</ele>
        <time>2024-01-26T07:08:50.000Z</time>
      </trkpt>
      <trkpt lat="-22.00213" lon="148.046141">
        <ele>252.946418</ele>
        <time>2024-01-26T07:09:00.000Z</time>
      </trkpt>
      <trkpt lat="-22.002052" lon="148.04631">
        <ele>253.167356</ele>
        <time>2024-01-26T07:09:02.000Z</time>
      </trkpt>
      <trkpt lat="-22.001619" lon="148.048088">
        <ele>255.196567</ele>
        <time>2024-01-26T07:09:21.000Z</time>
      </trkpt>
      <trkpt lat="-22.001544" lon="148.048522">
        <ele>255.700373</ele>
        <time>2024-01-26T07:09:26.000Z</time>
      </trkpt>
      <trkpt lat="-22.001369" lon="148.049912">
        <ele>255.407253</ele>
        <time>2024-01-26T07:09:40.000Z</time>
      </trkpt>
      <trkpt lat="-22.001352" lon="148.050083">
        <ele>255.372365</ele>
        <time>2024-01-26T07:09:42.000Z</time>
      </trkpt>
      <trkpt lat="-22.001328" lon="148.051373">
        <ele>254.410998</ele>
        <time>2024-01-26T07:09:55.000Z</time>
      </trkpt>
      <trkpt lat="-22.001337" lon="148.051809">
        <ele>253.996199</ele>
        <time>2024-01-26T07:09:59.000Z</time>
      </trkpt>
      <trkpt lat="-22.001453" lon="148.053152">
        <ele>253.015824</ele>
        <time>2024-01-26T07:10:13.000Z</time>
      </trkpt>
      <trkpt lat="-22.001474" lon="148.053788">
        <ele>252.656783</ele>
        <time>2024-01-26T07:10:20.000Z</time>
      </trkpt>
      <trkpt lat="-22.001484" lon="148.05462">
        <ele>252.173498</ele>
        <time>2024-01-26T07:10:29.000Z</time>
      </trkpt>
      <trkpt lat="-22.001354" lon="148.056078">
        <ele>251.239957</ele>
        <time>2024-01-26T07:10:44.000Z</time>
      </trkpt>
      <trkpt lat="-22.001196" lon="148.057118">
        <ele>250.966986</ele>
        <time>2024-01-26T07:10:55.000Z</time>
      </trkpt>
      <trkpt lat="-22.001016" lon="148.057922">
        <ele>250.811953</ele>
        <time>2024-01-26T07:11:04.000Z</time>
      </trkpt>
      <trkpt lat="-22.000639" lon="148.059202">
        <ele>251.127844</ele>
        <time>2024-01-26T07:11:18.000Z</time>
      </trkpt>
      <trkpt lat="-22.000297" lon="148.060158">
        <ele>251.372526</ele>
        <time>2024-01-26T07:11:29.000Z</time>
      </trkpt>
      <trkpt lat="-22.000049" lon="148.060717">
        <ele>251.292906</ele>
        <time>2024-01-26T07:11:35.000Z</time>
      </trkpt>
      <trkpt lat="-22.000048" lon="148.060722">
        <ele>251.29133</ele>
        <time>2024-01-26T07:11:35.000Z</time>
      </trkpt>
      <trkpt lat="-22.000042" lon="148.060731">
        <ele>251.290167</ele>
        <time>2024-01-26T07:11:35.000Z</time>
      </trkpt>
      <trkpt lat="-22.000029" lon="148.060786">
        <ele>251.283347</ele>
        <time>2024-01-26T07:11:36.000Z</time>
      </trkpt>
      <trkpt lat="-22.000148" lon="148.060956">
        <ele>251.254558</ele>
        <time>2024-01-26T07:11:38.000Z</time>
      </trkpt>
      <trkpt lat="-22.000204" lon="148.060836">
        <ele>251.236907</ele>
        <time>2024-01-26T07:11:39.000Z</time>
      </trkpt>
      <trkpt lat="-22.00082" lon="148.059274">
        <ele>250.811295</ele>
        <time>2024-01-26T07:11:57.000Z</time>
      </trkpt>
      <trkpt lat="-22.001205" lon="148.057972">
        <ele>250.526231</ele>
        <time>2024-01-26T07:12:11.000Z</time>
      </trkpt>
      <trkpt lat="-22.001432" lon="148.05686">
        <ele>250.626682</ele>
        <time>2024-01-26T07:12:23.000Z</time>
      </trkpt>
      <trkpt lat="-22.001555" lon="148.056122">
        <ele>250.888646</ele>
        <time>2024-01-26T07:12:31.000Z</time>
      </trkpt>
      <trkpt lat="-22.001663" lon="148.054628">
        <ele>251.801826</ele>
        <time>2024-01-26T07:12:46.000Z</time>
      </trkpt>
      <trkpt lat="-22.00165" lon="148.053797">
        <ele>252.250538</ele>
        <time>2024-01-26T07:12:55.000Z</time>
      </trkpt>
      <trkpt lat="-22.001618" lon="148.053152">
        <ele>252.586867</ele>
        <time>2024-01-26T07:13:02.000Z</time>
      </trkpt>
      <trkpt lat="-22.001517" lon="148.051811">
        <ele>254.080299</ele>
        <time>2024-01-26T07:13:16.000Z</time>
      </trkpt>
      <trkpt lat="-22.001526" lon="148.050481">
        <ele>256.182884</ele>
        <time>2024-01-26T07:13:30.000Z</time>
      </trkpt>
      <trkpt lat="-22.001548" lon="148.050003">
        <ele>257.247006</ele>
        <time>2024-01-26T07:13:35.000Z</time>
      </trkpt>
      <trkpt lat="-22.001376" lon="148.049921">
        <ele>257.711629</ele>
        <time>2024-01-26T07:13:37.000Z</time>
      </trkpt>
      <trkpt lat="-22.001239" lon="148.049884">
        <ele>258.021037</ele>
        <time>2024-01-26T07:13:39.000Z</time>
      </trkpt>
      <trkpt lat="-22.000435" lon="148.049882">
        <ele>259.913892</ele>
        <time>2024-01-26T07:13:48.000Z</time>
      </trkpt>
      <trkpt lat="-21.999865" lon="148.049837">
        <ele>260.747297663</ele>
        <time>2024-01-26T07:13:54.000Z</time>
      </trkpt>
      <trkpt lat="-21.999083" lon="148.049728">
        <ele>261.897104415</ele>
        <time>2024-01-26T07:14:03.000Z</time>
      </trkpt>
      <trkpt lat="-21.998916" lon="148.049574">
        <ele>262.217504288</ele>
        <time>2024-01-26T07:14:05.000Z</time>
      </trkpt>
      <trkpt lat="-21.99887" lon="148.049457">
        <ele>262.389327456</ele>
        <time>2024-01-26T07:14:06.000Z</time>
      </trkpt>
      <trkpt lat="-21.998847" lon="148.049282">
        <ele>262.628300251</ele>
        <time>2024-01-26T07:14:08.000Z</time>
      </trkpt>
      <trkpt lat="-21.998829" lon="148.048958">
        <ele>263.067147969</ele>
        <time>2024-01-26T07:14:11.000Z</time>
      </trkpt>
      <trkpt lat="-21.998829" lon="148.04895">
        <ele>263.077964317</ele>
        <time>2024-01-26T07:14:11.000Z</time>
      </trkpt>
      <trkpt lat="-21.998837" lon="148.048844">
        <ele>263.221754922</ele>
        <time>2024-01-26T07:14:12.000Z</time>
      </trkpt>
    </trkseg>
  </trk>
</gpx>

<!--
Performance optimized by W3 Total Cache. Learn more: https://www.boldgrid.com/w3-total-cache/?utm_source=w3tc&utm_medium=footer_comment&utm_campaign=free_plugin

Page Caching using Disk: Enhanced{w3tc_pagecache_reject_reason} 

Served from: www.aquabike.world @ 2026-05-10 23:18:06 by W3 Total Cache
-->